Castle Rock, Colorado
Current Conditions -  °F | °C
As of 12:53 AM on Friday 31 Oct 2014 (Local Time) from KAPA Reporting Station
Clear Clear  
Wind Chill: 37°   Ceiling: Unl
Heat Index: 43°   Visibility: 10mi
Dew Point: 25°   Wind: 12mph
Humidity: 49%   Direction: 170°S
Pressure: 30.4"   Gusts: NA
Location:  39.38°N, 104.85°W
Report Text: KAPA 310653Z 17010KT 10SM CLR 06/M04 A3040 RMK AO2 SLP276 T00611039 401610000
Loading
Personal Weather Stations






























Interactive Weather Map
Tropical Storm Tracking
New forecast layout! Learn more

10-Day Weather Forecast

Advertisements
Track Severe Weather on mobile